Aurillac Airport

LFLW · Auvergne-Rhône-Alpes, 法国

罗盘
风向 的 Aurillac Airport 15/33
风: 0 kt, 0 beaufort


改变
0 1.000 2.000 3.000 4.000 5.000
BKN 2.200 ft
OVC 3.400 ft
METAR LFLC 060430Z AUTO 00000KT 9999 BKN022 OVC034 14/11 Q1029 NOSIG

METAR Aurillac Airport - LFLW/AUR

Aurillac Airport是Aurillac,法国中的中型机场。 该机场有一条跑道: 15/33. 该领域的国际民航组织标志是LFLW 它的国际航空运输协会代码是AUR.

这份报告是针对2022年10月6日 06:30, 当地时间在Clermont-Ferrand Auvergne Airport进行的。

机场观察

可变方向的风很小或没有风。

可见度为10 km 或者更多。

有碎云在2.200 ft的高度 和 乌云密布在3.400 ft的高度。 破损或更高的上限为2.200 ft。

温度和风寒是14 °C。 露点为11 °C,相对湿度为82%。 海平面上的气压为1029 hPa (QNH)。

白天

今天,太阳从07:54升起,在19:22降落。 这适用于Aurillac Airport,世界夏令时可能有所不同。 当地时间与世界标准时间之间的时差为+2 小时。 夏令时目前正在进行中。

公司介绍

在这个机场,你可以找到飞行俱乐部。 本场上唯一已知的公司是Aéroclub du Cantal。

体会

到Vliegles.nl去找飞行课程,跳伞和其他飞行体验。 浏览页面,了解Aurillac Airport附近所有可用的活动。 你也可以使用搜索功能来寻找你所在地附近的特定飞行课程、跳伞或其他飞行体验。

跑道

Id 标题 侧风 逆风 侧风 %
15/33 150°-330°

逆风成分最大的方向会被突出显示,并用于横风计算。 这并不一定意味着这个方向在使用。

乌云

2.200 ft BKN 碎云
3.400 ft OVC 乌云密布

温度 & 天气

温度 14 °C
露点 11 °C
相对湿度 82%
Kp-index 2 (0-9)

白天

日出
07:52 (1h 13m)
中午
13:35
日落
19:18

小工具

你想在你的网站上有一个关于Aurillac Airport的当前航空天气(METAR)的小部件吗?

</> 显示HTML代码

我们和第三方通过cookies跟踪您在我们网站上的上网行为。如果您继续,我们认为您同意我们的cookie政策。 了解更多